Time;durP1;ratioP1;P1;durP2;ratioP2;P2;SDS_P1;SDS_P2;PMS_P1;PMS_P2;Temp;Humidity;BMP_temperature;BMP_pressure;BME280_temperature;BME280_humidity;BME280_pressure;Samples;Min_cycle;Max_cycle;Signal;HPM_P1;HPM_P2
2023/10/15 00:08:35;;;;;;;11.40;3.40;;;;;;;6.69;97.10;98961.85;433361;1263;138122;-66
2023/10/15 00:18:42;;;;;;;5.20;2.80;;;;;;;6.59;97.27;98977.06;433979;1259;138442;-65
2023/10/15 00:28:47;;;;;;;6.70;2.80;;;;;;;6.46;97.37;98979.86;433944;1259;138252;-65
2023/10/15 00:38:54;;;;;;;4.90;2.50;;;;;;;6.50;97.77;98978.09;435948;1261;139852;-65
2023/10/15 00:49:09;;;;;;;4.70;2.50;;;;;;;6.65;98.09;98974.95;433612;1259;138536;-65
2023/10/15 00:59:18;;;;;;;6.20;2.00;;;;;;;6.80;97.60;98975.98;433863;1260;138395;-65
2023/10/15 01:09:29;;;;;;;6.90;3.10;;;;;;;6.68;97.29;98977.07;434083;1262;139013;-65
2023/10/15 01:19:36;;;;;;;4.20;2.40;;;;;;;6.52;97.06;98981.42;433978;1262;138702;-65
2023/10/15 01:29:44;;;;;;;10.80;2.70;;;;;;;6.38;97.11;98991.24;433570;1260;138460;-65
2023/10/15 01:39:51;;;;;;;5.70;2.50;;;;;;;6.25;97.25;98988.19;434040;1259;138382;-66
2023/10/15 01:49:57;;;;;;;3.60;2.30;;;;;;;6.04;97.31;98992.96;433499;1262;138294;-66
2023/10/15 02:00:12;;;;;;;8.00;2.80;;;;;;;5.81;97.58;98994.52;433939;1260;140643;-66
2023/10/15 02:10:19;;;;;;;4.20;2.80;;;;;;;5.65;98.15;98994.14;434423;1259;138682;-66
2023/10/15 02:20:42;;;;;;;6.30;3.50;;;;;;;5.48;98.24;98986.69;434192;1259;138620;-64
2023/10/15 02:30:48;;;;;;;6.50;3.50;;;;;;;5.26;98.33;98989.91;434567;1261;139563;-65
2023/10/15 02:41:03;;;;;;;5.30;2.90;;;;;;;5.09;98.69;98990.60;433881;1259;139011;-64
2023/10/15 02:51:08;;;;;;;5.70;2.70;;;;;;;4.98;99.30;98992.70;433848;1260;138199;-66
2023/10/15 03:01:19;;;;;;;8.30;2.80;;;;;;;4.91;99.90;98988.20;433609;1259;139704;-66
2023/10/15 03:11:31;;;;;;;5.50;2.70;;;;;;;4.81;99.96;98992.34;433642;1259;138795;-65
2023/10/15 03:21:39;;;;;;;5.00;2.40;;;;;;;4.70;100.00;98996.34;434001;1259;139423;-65
2023/10/15 03:31:46;;;;;;;6.00;1.90;;;;;;;4.67;100.00;98996.98;433906;1259;138405;-65
2023/10/15 03:41:54;;;;;;;4.40;2.60;;;;;;;4.68;100.00;98988.14;434828;1262;140081;-68
2023/10/15 03:52:07;;;;;;;6.20;2.60;;;;;;;4.62;100.00;98991.16;434020;1259;138818;-65
2023/10/15 04:02:22;;;;;;;4.30;2.00;;;;;;;4.50;100.00;99001.66;433447;1262;138297;-65
2023/10/15 04:12:28;;;;;;;10.20;3.10;;;;;;;4.36;100.00;99004.04;434131;1261;138805;-66
2023/10/15 04:22:36;;;;;;;6.20;2.30;;;;;;;4.26;100.00;99001.91;433721;1262;138462;-65
2023/10/15 04:32:46;;;;;;;6.10;2.80;;;;;;;4.20;100.00;99004.77;434204;1259;139828;-65
2023/10/15 04:42:52;;;;;;;8.00;2.10;;;;;;;4.18;100.00;99000.91;434129;1262;138780;-65
2023/10/15 04:53:12;;;;;;;2.60;1.80;;;;;;;4.12;100.00;98998.56;434168;1259;139988;-63
2023/10/15 05:03:19;;;;;;;5.60;2.80;;;;;;;4.04;100.00;99011.57;434244;1262;140305;-65
2023/10/15 05:13:26;;;;;;;8.00;2.00;;;;;;;4.01;100.00;99025.95;433629;1259;138996;-65
2023/10/15 05:23:33;;;;;;;5.90;2.20;;;;;;;3.96;100.00;99033.42;434861;1258;138622;-65
2023/10/15 05:33:39;;;;;;;3.70;1.70;;;;;;;3.98;100.00;99045.61;435234;1258;138408;-64
2023/10/15 05:43:44;;;;;;;7.00;1.90;;;;;;;4.20;100.00;99054.31;434614;1254;139621;-66
2023/10/15 05:53:51;;;;;;;5.20;2.00;;;;;;;4.55;100.00;99051.48;434853;1254;140365;-65
2023/10/15 06:03:57;;;;;;;3.80;1.50;;;;;;;5.51;100.00;99062.17;435368;1254;138501;-65
2023/10/15 06:14:04;;;;;;;8.10;1.90;;;;;;;8.31;100.00;99065.02;436134;1258;138810;-66
2023/10/15 06:24:11;;;;;;;3.10;1.80;;;;;;;12.03;97.94;99075.06;435187;1254;138819;-67
2023/10/15 06:34:17;;;;;;;3.70;1.50;;;;;;;15.22;92.48;99079.98;435575;1254;138254;-66
2023/10/15 06:44:22;;;;;;;3.40;1.90;;;;;;;17.51;84.65;99090.55;434873;1258;139763;-66
2023/10/15 06:54:29;;;;;;;2.80;1.50;;;;;;;20.61;79.94;99102.91;434972;1254;162541;-65
2023/10/15 07:04:35;;;;;;;4.70;1.40;;;;;;;22.77;73.21;99110.15;435267;1255;138791;-66
2023/10/15 07:14:57;;;;;;;2.20;1.20;;;;;;;23.46;66.61;99105.63;437800;1256;138046;-69
2023/10/15 07:25:08;;;;;;;4.40;1.30;;;;;;;21.94;61.21;99113.17;435101;1255;137753;-65
2023/10/15 07:35:15;;;;;;;4.90;1.70;;;;;;;18.20;59.27;99119.81;435015;1258;138888;-65
2023/10/15 07:45:26;;;;;;;2.90;1.50;;;;;;;14.98;60.76;99131.84;435269;1256;137844;-65
2023/10/15 07:55:33;;;;;;;4.40;1.80;;;;;;;12.88;62.93;99129.38;434727;1258;137761;-63
2023/10/15 08:05:40;;;;;;;9.20;2.20;;;;;;;11.33;64.83;99137.05;434631;1258;138944;-65
2023/10/15 08:15:47;;;;;;;9.80;3.10;;;;;;;10.36;66.72;99145.01;435487;1256;138788;-63
2023/10/15 08:25:52;;;;;;;7.90;2.50;;;;;;;9.82;68.43;99147.31;434097;1254;138778;-64
2023/10/15 08:35:59;;;;;;;4.20;1.30;;;;;;;9.55;69.69;99145.77;435036;1258;139217;-63
2023/10/15 08:46:09;;;;;;;4.20;2.00;;;;;;;9.26;70.80;99148.55;434980;1256;137894;-65
2023/10/15 08:56:17;;;;;;;2.50;1.40;;;;;;;9.07;71.76;99152.05;435509;1258;139280;-63
2023/10/15 09:06:23;;;;;;;7.70;2.50;;;;;;;9.02;72.24;99146.27;434780;1256;140712;-62
2023/10/15 09:16:28;;;;;;;10.10;2.50;;;;;;;8.97;72.64;99143.11;434400;1258;137880;-64
2023/10/15 09:26:41;;;;;;;5.00;2.30;;;;;;;9.09;73.07;99144.59;434521;1256;139390;-63
2023/10/15 09:36:46;;;;;;;5.00;1.70;;;;;;;9.29;73.29;99147.50;434870;1255;139562;-64
2023/10/15 09:46:52;;;;;;;4.70;1.60;;;;;;;9.98;73.26;99149.02;434580;1258;138061;-63
2023/10/15 09:57:00;;;;;;;4.30;1.70;;;;;;;10.55;72.13;99142.52;434883;1254;137926;-63
2023/10/15 10:07:28;;;;;;;3.30;1.60;;;;;;;10.48;71.07;99134.59;434841;1258;138300;-64
2023/10/15 10:17:35;;;;;;;3.50;1.50;;;;;;;10.25;70.66;99137.21;435332;1258;137918;-63
2023/10/15 10:27:45;;;;;;;;;;;;;;;10.01;71.05;99134.19;435035;1254;137992;-64
2023/10/15 10:38:05;;;;;;;5.50;1.50;;;;;;;9.96;71.19;99128.88;434794;1257;125945;-64
2023/10/15 10:48:19;;;;;;;5.20;1.30;;;;;;;10.01;71.50;99117.05;434669;1258;138915;-63
2023/10/15 10:58:26;;;;;;;4.30;1.90;;;;;;;10.07;71.09;99112.06;434664;1255;138304;-63
2023/10/15 11:08:32;;;;;;;6.80;1.40;;;;;;;10.03;71.15;99113.90;434435;1258;138819;-64
2023/10/15 11:18:40;;;;;;;5.50;2.00;;;;;;;9.92;71.37;99112.18;434722;1258;138366;-64
2023/10/15 11:28:46;;;;;;;8.80;2.90;;;;;;;10.06;71.94;99109.36;434732;1256;138314;-65
2023/10/15 11:38:54;;;;;;;3.60;1.80;;;;;;;9.93;71.38;99098.27;434577;1257;138379;-63
2023/10/15 11:49:01;;;;;;;6.50;1.60;;;;;;;9.74;71.56;99098.95;434342;1255;139307;-63
2023/10/15 11:59:07;;;;;;;3.40;1.40;;;;;;;9.67;71.70;99106.20;434318;1255;137873;-63
2023/10/15 12:09:16;;;;;;;3.50;1.80;;;;;;;9.82;71.95;99095.58;435006;1258;138225;-64
2023/10/15 12:19:23;;;;;;;4.60;1.70;;;;;;;10.36;71.76;99082.94;434416;1254;138893;-64
2023/10/15 12:29:29;;;;;;;4.30;2.40;;;;;;;10.82;70.83;99084.20;434934;1256;138351;-65
2023/10/15 12:39:40;;;;;;;4.30;1.50;;;;;;;10.89;70.15;99077.59;434590;1258;138003;-66
2023/10/15 12:49:46;;;;;;;3.90;1.10;;;;;;;10.82;69.83;99075.08;434847;1258;138478;-64
2023/10/15 12:59:52;;;;;;;6.60;2.60;;;;;;;10.84;69.59;99065.33;434506;1259;139030;-64
2023/10/15 13:09:58;;;;;;;8.80;1.60;;;;;;;10.95;69.34;99057.35;434477;1259;137950;-64
2023/10/15 13:20:06;;;;;;;5.10;1.60;;;;;;;11.00;68.16;99054.90;434442;1259;139644;-64
2023/10/15 13:30:16;;;;;;;4.10;1.60;;;;;;;10.73;67.76;99057.17;435278;1258;140103;-64
2023/10/15 13:40:23;;;;;;;5.30;1.70;;;;;;;10.59;67.98;99062.56;434950;1258;139717;-65
2023/10/15 13:50:29;;;;;;;5.80;2.40;;;;;;;10.65;68.13;99063.03;434989;1256;138527;-64
2023/10/15 14:00:37;;;;;;;5.10;1.00;;;;;;;10.63;68.16;99056.70;435164;1258;139664;-64
2023/10/15 14:10:43;;;;;;;4.50;1.50;;;;;;;10.43;67.70;99052.88;435107;1258;138068;-63
2023/10/15 14:20:50;;;;;;;5.40;1.70;;;;;;;10.13;68.04;99051.27;434840;1260;138299;-63
2023/10/15 14:30:56;;;;;;;2.90;1.40;;;;;;;10.01;68.15;99043.53;434596;1254;139032;-64
2023/10/15 14:41:02;;;;;;;2.50;1.30;;;;;;;9.65;67.78;99052.02;434553;1260;138720;-64
2023/10/15 14:51:10;;;;;;;2.00;1.20;;;;;;;9.40;68.52;99054.17;435020;1260;137721;-64
2023/10/15 15:01:16;;;;;;;4.80;1.80;;;;;;;9.22;69.32;99066.91;435363;1260;138121;-64
2023/10/15 15:11:22;;;;;;;2.80;1.20;;;;;;;9.34;69.56;99069.23;434991;1260;139540;-64
2023/10/15 15:21:28;;;;;;;1.90;1.10;;;;;;;8.98;69.19;99081.94;435130;1259;137919;-64
2023/10/15 15:31:34;;;;;;;6.10;2.10;;;;;;;8.51;69.74;99086.30;434799;1254;138899;-63
2023/10/15 15:41:40;;;;;;;7.80;3.40;;;;;;;7.99;70.56;99089.15;434913;1255;140528;-63
2023/10/15 15:51:46;;;;;;;6.50;2.80;;;;;;;7.49;71.52;99100.83;434865;1254;138015;-64
2023/10/15 16:01:54;;;;;;;8.40;3.70;;;;;;;7.05;72.32;99118.86;434830;1254;141092;-63
2023/10/15 16:12:00;;;;;;;5.20;3.50;;;;;;;6.67;73.11;99135.05;434895;1254;139377;-63
2023/10/15 16:22:06;;;;;;;10.70;4.90;;;;;;;6.34;74.02;99144.63;435096;1259;140071;-63
2023/10/15 16:32:12;;;;;;;5.90;2.80;;;;;;;6.05;74.93;99153.63;435188;1255;139373;-63
2023/10/15 16:42:18;;;;;;;12.80;6.40;;;;;;;5.79;75.93;99163.95;435540;1254;138474;-64
2023/10/15 16:52:24;;;;;;;11.40;5.10;;;;;;;5.54;76.89;99179.77;435182;1259;138449;-63
2023/10/15 17:02:30;;;;;;;13.80;6.20;;;;;;;5.36;77.75;99197.88;435422;1258;138468;-64
2023/10/15 17:12:37;;;;;;;11.60;4.70;;;;;;;5.14;78.70;99203.92;435018;1259;138684;-63
2023/10/15 17:22:44;;;;;;;14.70;8.20;;;;;;;4.91;79.63;99209.15;434932;1254;138567;-65
2023/10/15 17:32:57;;;;;;;30.50;15.00;;;;;;;4.69;80.46;99208.97;435224;1254;138402;-63
2023/10/15 17:43:03;;;;;;;16.20;8.30;;;;;;;4.45;81.10;99215.61;434961;1255;139179;-64
2023/10/15 17:53:09;;;;;;;15.60;9.10;;;;;;;4.22;82.11;99221.09;435184;1260;138505;-63
2023/10/15 18:03:15;;;;;;;21.80;14.00;;;;;;;4.05;83.03;99237.43;435384;1259;138842;-63
2023/10/15 18:13:21;;;;;;;20.00;11.30;;;;;;;3.90;83.87;99238.05;435203;1254;140089;-64
2023/10/15 18:23:27;;;;;;;14.60;7.80;;;;;;;3.73;84.81;99239.07;434943;1260;138893;-62
2023/10/15 18:33:33;;;;;;;15.00;9.70;;;;;;;3.59;85.76;99248.50;434928;1258;139409;-62
2023/10/15 18:43:40;;;;;;;11.00;5.80;;;;;;;3.43;86.30;99246.86;435034;1258;138909;-62
2023/10/15 18:53:46;;;;;;;12.90;6.20;;;;;;;3.34;86.87;99248.77;435805;1259;180384;-63
2023/10/15 19:03:51;;;;;;;11.80;5.80;;;;;;;3.29;87.68;99260.06;435007;1254;138355;-62
2023/10/15 19:13:59;;;;;;;7.40;6.30;;;;;;;3.22;88.40;99271.22;434987;1254;139757;-62
2023/10/15 19:24:06;;;;;;;10.00;6.50;;;;;;;3.18;88.87;99288.86;435286;1258;138893;-62
2023/10/15 19:34:11;;;;;;;;;;;;;;;3.15;89.57;99299.70;436006;1254;138403;-66
2023/10/15 19:44:18;;;;;;;10.70;5.50;;;;;;;3.09;90.00;99308.91;435259;1258;125500;-61
2023/10/15 19:54:24;;;;;;;7.80;4.70;;;;;;;3.03;90.46;99315.16;434904;1254;140361;-62
2023/10/15 20:04:31;;;;;;;8.40;5.40;;;;;;;2.95;90.91;99318.41;435078;1258;138917;-62
2023/10/15 20:14:38;;;;;;;6.10;5.10;;;;;;;2.90;91.15;99319.61;435119;1254;139363;-63
2023/10/15 20:24:45;;;;;;;8.30;4.70;;;;;;;2.84;91.50;99323.98;435094;1255;138430;-62
2023/10/15 20:34:51;;;;;;;6.00;4.30;;;;;;;2.80;92.14;99325.67;435058;1254;139393;-60
2023/10/15 20:44:57;;;;;;;5.50;4.10;;;;;;;2.75;92.27;99327.08;435125;1254;138949;-62
2023/10/15 20:55:05;;;;;;;6.80;4.20;;;;;;;2.71;92.95;99325.50;434980;1255;139063;-62
2023/10/15 21:05:12;;;;;;;6.60;4.60;;;;;;;2.64;93.27;99327.99;435251;1255;139434;-62
2023/10/15 21:15:18;;;;;;;7.20;4.50;;;;;;;2.55;93.31;99327.27;435399;1258;138400;-62
2023/10/15 21:25:25;;;;;;;9.40;4.50;;;;;;;2.52;94.02;99326.85;434783;1258;138322;-69
2023/10/15 21:35:30;;;;;;;;;;;;;;;2.59;94.32;99318.51;437925;1255;139326;-69
2023/10/15 21:45:36;;;;;;;7.00;4.40;;;;;;;2.56;94.48;99319.80;438056;1255;125611;-69
2023/10/15 21:55:43;;;;;;;5.80;3.00;;;;;;;2.67;95.40;99310.06;437889;1254;138866;-69
2023/10/15 22:05:49;;;;;;;6.70;3.50;;;;;;;2.94;95.83;99305.63;435930;1254;138932;-68
2023/10/15 22:15:55;;;;;;;3.90;3.00;;;;;;;3.25;96.33;99308.64;435894;1258;138246;-69
2023/10/15 22:26:03;;;;;;;4.10;2.60;;;;;;;3.57;96.01;99309.16;436430;1255;139427;-69
2023/10/15 22:36:09;;;;;;;5.40;2.80;;;;;;;3.83;95.97;99297.21;438036;1254;138577;-68
2023/10/15 22:46:17;;;;;;;6.20;3.00;;;;;;;4.00;95.42;99292.01;437865;1256;138488;-70
2023/10/15 22:56:23;;;;;;;2.80;2.50;;;;;;;4.07;94.89;99296.05;437701;1255;139175;-70
2023/10/15 23:06:29;;;;;;;4.30;2.30;;;;;;;4.21;94.79;99292.86;437805;1254;138554;-69
2023/10/15 23:16:39;;;;;;;8.90;3.20;;;;;;;4.32;94.52;99286.70;437872;1255;138509;-69
2023/10/15 23:26:45;;;;;;;3.80;3.00;;;;;;;4.39;94.31;99289.19;435240;1254;138750;-70
2023/10/15 23:36:51;;;;;;;5.00;2.50;;;;;;;4.45;94.14;99299.45;438116;1254;138787;-68
2023/10/15 23:47:11;;;;;;;4.50;2.50;;;;;;;4.57;93.94;99311.60;434836;1258;141740;-69
2023/10/15 23:57:18;;;;;;;2.70;2.00;;;;;;;4.67;93.89;99316.73;437686;1255;138396;-69
